Portada
METAR-TAF:

METAR-TAF

Aeroports :

Farmville Regional Airport

Farmville, Virgínia, Estats Units d'Amèrica

latitud: 37-21N, longitud: 078-26W, altitud: 125 m

Observació

L'informe es va fer fa 27 minuts, a les 23:15 UTC
Vent calma
Temperatura 26°C
Humitat 89%
Pressió 1018 hPa
Visibilitat: 16.1 km
Núvols disperses a una alçada de 3100 ft
Núvols disperses a una alçada de 8500 ft

METAR: KFVX 072315Z AUTO 00000KT 10SM SCT031 SCT085 26/24 A3006 RMK AO2 T02580238

Hora: 19:42 (23:42 UTC)


TAF: manca

Observacions i pronòstics meteorològics de més de 4000 aeroports (METAR i TAF).

Les estacions disponibles són els punts grocs i vermells al mapa.

Posi el ratolí al punt desitjat per veure el nom de l'estació.

Feu clic per veure les observacions i els pronòstics meteorològics.

Per canviar el mapa: feu clic els botons verds amb una creu de color negre per apropar; al botó verd amb un guió per allunyar la imatge; o en les fletxes verdes per a mapes adjacents.


METAR-TAF: